ADDS METAR Data INFO
IDs: Format: Raw Decoded Include TAF

Data at: 1338 UTC 23 Jun 2018

KWDR 231315Z AUTO 28008KT 10SM BKN009 BKN015 OVC024 25/23 A2998 RMK AO1
KWDR 231255Z AUTO 25004KT 10SM SCT010 SCT014 OVC024 25/22 A2998 RMK AO1
KWDR 231235Z AUTO 00000KT 10SM SCT008 SCT014 OVC022 23/22 A2997 RMK AO1 LTG DSNT W AND NW
KWDR 231215Z AUTO 24004KT 10SM BKN008 OVC018 23/22 A2997 RMK AO1
KWDR 231155Z AUTO 23004KT 10SM SCT010 OVC018 23/22 A2996 RMK AO1 LTG DSNT SE
KWDR 231135Z AUTO 23003KT 7SM SCT012 OVC018 23/22 A2995 RMK AO1
KWDR 231115Z AUTO 21003KT 10SM OVC020 23/22 A2994 RMK AO1
KWDR 231055Z AUTO 24003KT 10SM SCT007 OVC020 22/22 A2993 RMK AO1
KWDR 231035Z AUTO 23004KT 10SM BKN007 OVC016 22/22 A2992 RMK AO1 LTG DSNT SE
KWDR 231015Z AUTO 25004KT 10SM OVC005 22/22 A2991 RMK AO1
KWDR 230955Z AUTO 24004KT 10SM BKN005 BKN033 22/21 A2991 RMK AO1 LTG DSNT SE
KWDR 230935Z AUTO 25004KT 10SM BKN005 BKN019 BKN034 22/21 A2991 RMK AO1 LTG DSNT SE
KWDR 230915Z AUTO 22005KT 10SM BKN019 BKN032 OVC065 22/21 A2991 RMK AO1 LTG DSNT SE
KWDR 230855Z AUTO 22004KT 10SM SCT012 BKN023 OVC065 22/21 A2991 RMK AO1 LTG DSNT S
KWDR 230835Z AUTO 22005KT 10SM SCT012 BKN023 22/21 A2989 RMK AO1
KWDR 230815Z AUTO 22004KT 10SM SCT013 BKN019 22/21 A2989 RMK AO1 LTG DSNT SE
KWDR 230755Z AUTO 21004KT 10SM BKN019 22/21 A2989 RMK AO1
KWDR 230735Z AUTO 20004KT 10SM SCT095 22/21 A2990 RMK AO1 LTG DSNT SE AND S
KWDR 230715Z AUTO 22003KT 10SM SCT095 22/21 A2989 RMK AO1
KWDR 230655Z AUTO 00000KT 10SM SCT060 SCT095 22/21 A2989 RMK AO1
KWDR 230635Z AUTO 22004KT 10SM SCT060 BKN085 OVC110 22/21 A2990 RMK AO1
KWDR 230615Z AUTO 22005KT 10SM SCT060 SCT085 BKN100 22/21 A2991 RMK AO1 LTG DSNT SW
KWDR 230555Z AUTO 21005KT 10SM SCT021 SCT085 BKN100 22/21 A2991 RMK AO1
KWDR 230535Z AUTO 00000KT 10SM SCT021 BKN100 22/21 A2990 RMK AO1
KWDR 230515Z AUTO 00000KT 10SM SCT021 SCT033 BKN100 21/21 A2990 RMK AO1
KWDR 230455Z AUTO 20003KT 10SM SCT033 22/21 A2990 RMK AO1 LTG DSNT SE
KWDR 230435Z AUTO 20005KT 10SM SCT055 22/21 A2990 RMK AO1 LTG DSNT SE
KWDR 230415Z AUTO 21004KT 10SM BKN055 22/21 A2990 RMK AO1
KWDR 230355Z AUTO 22004KT 10SM SCT055 22/21 A2990 RMK AO1
KWDR 230335Z AUTO 23004KT 10SM CLR 22/21 A2991 RMK AO1 LTG DSNT SE
KWDR 230315Z AUTO 22003KT 10SM CLR 22/21 A2991 RMK AO1 LTG DSNT SE
KWDR 230255Z AUTO 23004KT 10SM CLR 22/21 A2990 RMK AO1 LTG DSNT SE
KWDR 230235Z AUTO 26003KT 10SM SCT090 22/21 A2990 RMK AO1 LTG DSNT SE AND NW
KWDR 230215Z AUTO 22003KT 10SM CLR 22/21 A2991 RMK AO1 LTG DSNT SE
KWDR 230155Z AUTO 22004KT 10SM VCTS CLR 22/21 A2990 RMK AO1 LTG DSNT SE
KWDR 230135Z AUTO 22003KT 10SM CLR 22/21 A2990 RMK AO1 LTG DSNT SE
KWDR 230115Z AUTO 22003KT 10SM VCTS CLR 23/21 A2989 RMK AO1 LTG DSNT SE
KWDR 230055Z AUTO 20003KT 10SM SCT035 SCT065 BKN120 22/21 A2989 RMK AO1 LTG DSNT ALQS
KWDR 230035Z AUTO 00000KT 10SM SCT037 BKN090 OVC110 23/21 A2989 RMK AO1 LTG DSNT E THRU S
KWDR 230015Z AUTO 00000KT 10SM BKN100 22/21 A2990 RMK AO1 LTG DSNT SE
KWDR 222355Z AUTO 00000KT 10SM BKN100 BKN120 23/21 A2990 RMK AO1 LTG DSNT SE AND SW
KWDR 222335Z AUTO 00000KT 7SM VCTSRA BKN100 BKN120 22/21 A2991 RMK AO1 LTG DSNT E AND SE
KWDR 222315Z AUTO 32005KT 7SM -VCTSRA SCT009 BKN075 OVC100 22/21 A2991 RMK AO1 LTG DSNT ALQS
KWDR 222255Z AUTO 31006G22KT 1 1/2SM +TSRA BKN009 OVC030 22/21 A2991 RMK AO1 LTG DSNT ALQS
KWDR 222235Z AUTO 34010G18KT 3SM TSRA SCT007 BKN041 OVC120 23/22 A2987 RMK AO1 LTG DSNT ALQS
KWDR 222215Z AUTO 24005KT 10SM -RA BKN110 28/22 A2985 RMK AO1 LTG DSNT W THRU NE
KWDR 222155Z AUTO 21003KT 10SM VCTS SCT120 30/21 A2984 RMK AO1 LTG DSNT W AND NW
KWDR 222135Z AUTO 22005KT 10SM CLR 31/20 A2984 RMK AO1 LTG DSNT SE AND W
KWDR 222115Z AUTO 22006KT 10SM SCT070 SCT100 SCT120 31/20 A2985 RMK AO1 LTG DSNT SE
KWDR 222055Z AUTO 23006KT 10SM SCT070 BKN080 BKN120 32/20 A2984 RMK AO1 LTG DSNT W
KWDR 222035Z AUTO 22004KT 10SM SCT060 SCT100 BKN120 32/19 A2985 RMK AO1
KWDR 222015Z AUTO 25005KT 10SM SCT060 SCT075 SCT120 33/18 A2986 RMK AO1 LTG DSNT SE
KWDR 221955Z AUTO 25010G17KT 225V285 10SM SCT060 33/17 A2987 RMK AO1 LTG DSNT NW
KWDR 221935Z AUTO 24008KT 185V245 10SM SCT060 SCT080 33/17 A2987 RMK AO1
KWDR 221915Z AUTO 25006KT 10SM SCT050 SCT080 33/18 A2988 RMK AO1
KWDR 221855Z AUTO 23005KT 10SM SCT050 33/19 A2988 RMK AO1
KWDR 221836Z AUTO 25010G15KT 215V285 10SM SCT050 SCT065 32/19 A2989 RMK AO1 LTG DSNT SE
KWDR 221815Z AUTO 25005KT 10SM SCT050 SCT065 32/19 A2990 RMK AO1 LTG DSNT SE AND NW
KWDR 221755Z AUTO 27007KT 235V305 10SM SCT050 SCT070 32/18 A2991 RMK AO1
KWDR 221735Z AUTO 26008G15KT 225V305 10SM SCT050 SCT070 32/19 A2991 RMK AO1 LTG DSNT SE
KWDR 221715Z AUTO 27006G15KT 225V285 10SM SCT045 32/20 A2991 RMK AO1 LTG DSNT NW
KWDR 221655Z AUTO 28010KT 10SM SCT047 32/20 A2991 RMK AO1
KWDR 221635Z AUTO 27007KT 10SM SCT045 31/20 A2991 RMK AO1
KWDR 221615Z AUTO 26014G19KT 10SM CLR 31/19 A2991 RMK AO1
KWDR 221555Z AUTO 29009G14KT 10SM CLR 30/18 A2992 RMK AO1
KWDR 221535Z AUTO 27012G18KT 10SM CLR 30/18 A2992 RMK AO1
KWDR 221515Z AUTO 28011G15KT 10SM SCT120 30/18 A2991 RMK AO1 LTG DSNT S
KWDR 221455Z AUTO 28013G17KT 245V305 10SM SCT120 30/18 A2991 RMK AO1
KWDR 221435Z AUTO 28008G19KT 10SM CLR 29/18 A2991 RMK AO1
KWDR 221415Z AUTO 27005KT 10SM CLR 28/20 A2991 RMK AO1
KWDR 221355Z AUTO 29004KT 10SM CLR 27/20 A2991 RMK AO1
KWDR 221335Z AUTO 26005KT 10SM SCT120 27/21 A2991 RMK AO1 LTG DSNT W
KWDR 221315Z AUTO 26005KT 10SM BKN120 27/21 A2991 RMK AO1
KWDR 221256Z AUTO 26006KT 10SM SCT120 26/21 A2991 RMK AO1
KWDR 221235Z AUTO 26006KT 10SM CLR 24/21 A2990 RMK AO1
KWDR 221215Z AUTO 24004KT 10SM CLR 23/21 A2989 RMK AO1
KWDR 221155Z AUTO 24004KT 10SM SCT120 23/21 A2988 RMK AO1
KWDR 221135Z AUTO 22003KT 10SM BKN120 23/21 A2987 RMK AO1
KWDR 221115Z AUTO 24005KT 10SM SCT090 SCT120 23/21 A2988 RMK AO1
KWDR 221055Z AUTO 20006KT 10SM SCT006 SCT090 22/21 A2988 RMK AO1
KWDR 221035Z AUTO 23006KT 10SM SCT006 22/21 A2990 RMK AO1
KWDR 221015Z AUTO 23006KT 10SM SCT006 22/21 A2990 RMK AO1
KWDR 220955Z AUTO 23005KT 10SM CLR 22/21 A2989 RMK AO1
KWDR 220935Z AUTO 22005KT 10SM CLR 22/21 A2988 RMK AO1
KWDR 220915Z AUTO 22006KT 10SM CLR 22/21 A2988 RMK AO1
KWDR 220855Z AUTO 22005KT 10SM CLR 22/21 A2988 RMK AO1
KWDR 220835Z AUTO 23003KT 10SM CLR 22/21 A2987 RMK AO1
KWDR 220815Z AUTO 23004KT 10SM CLR 23/22 A2987 RMK AO1
KWDR 220755Z AUTO 26003KT 10SM CLR 23/22 A2987 RMK AO1
KWDR 220735Z AUTO 27004KT 10SM CLR 23/22 A2986 RMK AO1
KWDR 220715Z AUTO 00000KT 10SM CLR 23/22 A2986 RMK AO1
KWDR 220655Z AUTO 00000KT 10SM CLR 23/22 A2986 RMK AO1
KWDR 220635Z AUTO 00000KT 10SM CLR 23/22 A2987 RMK AO1
KWDR 220615Z AUTO 00000KT 10SM CLR 23/22 A2987 RMK AO1 LTG DSNT NW
KWDR 220555Z AUTO 00000KT 10SM CLR 23/22 A2988 RMK AO1
KWDR 220535Z AUTO 00000KT 10SM CLR 23/22 A2988 RMK AO1
KWDR 220515Z AUTO 00000KT 10SM CLR 23/22 A2988 RMK AO1
KWDR 220455Z AUTO 26005KT 10SM CLR 24/22 A2989 RMK AO1
KWDR 220435Z AUTO 26003KT 10SM CLR 24/22 A2990 RMK AO1
KWDR 220415Z AUTO 00000KT 10SM CLR 24/22 A2989 RMK AO1
KWDR 220355Z AUTO 24005KT 10SM CLR 25/22 A2990 RMK AO1
KWDR 220335Z AUTO 24004KT 10SM CLR 25/22 A2990 RMK AO1
KWDR 220315Z AUTO 23004KT 10SM SCT055 25/22 A2991 RMK AO1
KWDR 220255Z AUTO 22004KT 10SM SCT028 25/22 A2991 RMK AO1
KWDR 220235Z AUTO 23004KT 10SM SCT028 SCT070 25/21 A2991 RMK AO1
KWDR 220215Z AUTO 23005KT 10SM SCT070 BKN100 26/21 A2991 RMK AO1
KWDR 220155Z AUTO 23005KT 10SM SCT080 OVC100 26/22 A2991 RMK AO1